sensor_id;sensor_type;location;lat;lon;timestamp;temperature;humidity
48946;DHT22;34999;50.940;3.998;2022-07-25T00:00:39;22.10;99.90
48946;DHT22;34999;50.940;3.998;2022-07-25T00:03:08;22.00;99.90
48946;DHT22;34999;50.940;3.998;2022-07-25T00:05:36;21.90;99.90
48946;DHT22;34999;50.940;3.998;2022-07-25T00:08:06;21.80;99.90
48946;DHT22;34999;50.940;3.998;2022-07-25T00:10:34;21.80;99.90
48946;DHT22;34999;50.940;3.998;2022-07-25T00:13:03;21.70;99.90
48946;DHT22;34999;50.940;3.998;2022-07-25T00:15:31;21.70;99.90
48946;DHT22;34999;50.940;3.998;2022-07-25T00:18:00;21.60;99.90
48946;DHT22;34999;50.940;3.998;2022-07-25T00:20:29;21.50;99.90
48946;DHT22;34999;50.940;3.998;2022-07-25T00:22:58;21.50;99.90
48946;DHT22;34999;50.940;3.998;2022-07-25T00:25:28;21.40;99.90
48946;DHT22;34999;50.940;3.998;2022-07-25T00:27:56;21.40;99.90
48946;DHT22;34999;50.940;3.998;2022-07-25T00:30:25;21.30;99.90
48946;DHT22;34999;50.940;3.998;2022-07-25T00:32:57;21.20;99.90
48946;DHT22;34999;50.940;3.998;2022-07-25T00:35:25;21.20;99.90
48946;DHT22;34999;50.940;3.998;2022-07-25T00:37:53;21.10;99.90
48946;DHT22;34999;50.940;3.998;2022-07-25T00:40:22;21.10;99.90
48946;DHT22;34999;50.940;3.998;2022-07-25T00:42:52;21.00;99.90
48946;DHT22;34999;50.940;3.998;2022-07-25T00:45:20;20.90;99.90
48946;DHT22;34999;50.940;3.998;2022-07-25T00:47:48;20.90;99.90
48946;DHT22;34999;50.940;3.998;2022-07-25T00:50:17;20.80;99.90
48946;DHT22;34999;50.940;3.998;2022-07-25T00:52:46;20.80;99.90
48946;DHT22;34999;50.940;3.998;2022-07-25T00:55:15;20.80;99.90
48946;DHT22;34999;50.940;3.998;2022-07-25T00:57:43;20.70;99.90
48946;DHT22;34999;50.940;3.998;2022-07-25T01:00:14;20.70;99.90
48946;DHT22;34999;50.940;3.998;2022-07-25T01:05:57;20.60;99.90
48946;DHT22;34999;50.940;3.998;2022-07-25T01:08:26;20.50;99.90
48946;DHT22;34999;50.940;3.998;2022-07-25T01:10:54;20.50;99.90
48946;DHT22;34999;50.940;3.998;2022-07-25T01:13:23;20.50;99.90
48946;DHT22;34999;50.940;3.998;2022-07-25T01:15:52;20.50;99.90
48946;DHT22;34999;50.940;3.998;2022-07-25T01:18:21;20.40;99.90
48946;DHT22;34999;50.940;3.998;2022-07-25T01:20:51;20.40;99.90
48946;DHT22;34999;50.940;3.998;2022-07-25T01:23:19;20.40;99.90
48946;DHT22;34999;50.940;3.998;2022-07-25T01:25:48;20.40;99.90
48946;DHT22;34999;50.940;3.998;2022-07-25T01:28:16;20.40;99.90
48946;DHT22;34999;50.940;3.998;2022-07-25T01:30:45;20.40;99.90
48946;DHT22;34999;50.940;3.998;2022-07-25T01:33:14;20.30;99.90
48946;DHT22;34999;50.940;3.998;2022-07-25T01:35:43;20.30;99.90
48946;DHT22;34999;50.940;3.998;2022-07-25T01:38:14;20.30;99.90
48946;DHT22;34999;50.940;3.998;2022-07-25T01:40:43;20.20;99.90
48946;DHT22;34999;50.940;3.998;2022-07-25T01:43:12;20.20;99.90
48946;DHT22;34999;50.940;3.998;2022-07-25T01:45:41;20.10;99.90
48946;DHT22;34999;50.940;3.998;2022-07-25T01:48:10;20.10;99.90
48946;DHT22;34999;50.940;3.998;2022-07-25T01:50:38;20.00;99.90
48946;DHT22;34999;50.940;3.998;2022-07-25T01:53:06;20.00;99.90
48946;DHT22;34999;50.940;3.998;2022-07-25T01:56:04;20.00;99.90
48946;DHT22;34999;50.940;3.998;2022-07-25T02:05:39;19.80;99.90
48946;DHT22;34999;50.940;3.998;2022-07-25T02:08:26;19.80;99.90
48946;DHT22;34999;50.940;3.998;2022-07-25T02:10:56;19.70;99.90
48946;DHT22;34999;50.940;3.998;2022-07-25T02:13:26;19.70;99.90
48946;DHT22;34999;50.940;3.998;2022-07-25T02:15:54;19.70;99.90
48946;DHT22;34999;50.940;3.998;2022-07-25T02:18:23;19.70;99.90
48946;DHT22;34999;50.940;3.998;2022-07-25T02:20:52;19.70;99.90
48946;DHT22;34999;50.940;3.998;2022-07-25T02:23:20;19.70;99.90
48946;DHT22;34999;50.940;3.998;2022-07-25T02:25:51;19.70;99.90
48946;DHT22;34999;50.940;3.998;2022-07-25T02:28:20;19.60;99.90
48946;DHT22;34999;50.940;3.998;2022-07-25T02:30:49;19.60;99.90
48946;DHT22;34999;50.940;3.998;2022-07-25T02:33:18;19.60;99.90
48946;DHT22;34999;50.940;3.998;2022-07-25T02:35:47;19.60;99.90
48946;DHT22;34999;50.940;3.998;2022-07-25T02:38:16;19.60;99.90
48946;DHT22;34999;50.940;3.998;2022-07-25T02:40:47;19.60;99.90
48946;DHT22;34999;50.940;3.998;2022-07-25T02:43:16;19.60;99.90
48946;DHT22;34999;50.940;3.998;2022-07-25T02:45:45;19.60;99.90
48946;DHT22;34999;50.940;3.998;2022-07-25T02:48:15;19.70;99.90
48946;DHT22;34999;50.940;3.998;2022-07-25T02:50:44;19.70;99.90
48946;DHT22;34999;50.940;3.998;2022-07-25T02:53:12;19.70;99.90
48946;DHT22;34999;50.940;3.998;2022-07-25T02:55:41;19.80;99.90
48946;DHT22;34999;50.940;3.998;2022-07-25T02:58:09;19.80;99.90
48946;DHT22;34999;50.940;3.998;2022-07-25T03:00:38;19.80;99.90
48946;DHT22;34999;50.940;3.998;2022-07-25T03:03:32;19.80;99.90
48946;DHT22;34999;50.940;3.998;2022-07-25T03:06:00;19.80;99.90
48946;DHT22;34999;50.940;3.998;2022-07-25T03:11:34;19.90;99.90
48946;DHT22;34999;50.940;3.998;2022-07-25T03:14:03;19.90;99.90
48946;DHT22;34999;50.940;3.998;2022-07-25T03:16:32;19.90;99.90
48946;DHT22;34999;50.940;3.998;2022-07-25T03:19:02;19.90;99.90
48946;DHT22;34999;50.940;3.998;2022-07-25T03:21:30;20.00;99.90
48946;DHT22;34999;50.940;3.998;2022-07-25T03:23:59;20.00;99.90
48946;DHT22;34999;50.940;3.998;2022-07-25T03:26:28;20.10;99.90
48946;DHT22;34999;50.940;3.998;2022-07-25T03:28:56;20.10;99.90
48946;DHT22;34999;50.940;3.998;2022-07-25T03:31:24;20.20;99.90
48946;DHT22;34999;50.940;3.998;2022-07-25T03:33:54;20.20;99.90
48946;DHT22;34999;50.940;3.998;2022-07-25T03:36:24;20.20;99.90
48946;DHT22;34999;50.940;3.998;2022-07-25T03:38:52;20.20;99.90
48946;DHT22;34999;50.940;3.998;2022-07-25T03:41:22;20.20;99.90
48946;DHT22;34999;50.940;3.998;2022-07-25T03:43:54;20.10;99.90
48946;DHT22;34999;50.940;3.998;2022-07-25T03:46:22;20.20;99.90
48946;DHT22;34999;50.940;3.998;2022-07-25T03:48:51;20.10;99.90
48946;DHT22;34999;50.940;3.998;2022-07-25T03:51:19;20.10;99.90
48946;DHT22;34999;50.940;3.998;2022-07-25T03:53:49;20.10;99.90
48946;DHT22;34999;50.940;3.998;2022-07-25T03:56:31;20.10;99.90
48946;DHT22;34999;50.940;3.998;2022-07-25T03:58:59;20.10;99.90
48946;DHT22;34999;50.940;3.998;2022-07-25T04:01:28;20.10;99.90
48946;DHT22;34999;50.940;3.998;2022-07-25T04:04:34;20.10;99.90
48946;DHT22;34999;50.940;3.998;2022-07-25T04:07:02;20.10;99.90
48946;DHT22;34999;50.940;3.998;2022-07-25T04:09:32;20.10;99.90
48946;DHT22;34999;50.940;3.998;2022-07-25T04:12:01;20.10;99.90
48946;DHT22;34999;50.940;3.998;2022-07-25T04:14:30;20.10;99.90
48946;DHT22;34999;50.940;3.998;2022-07-25T04:16:58;20.10;99.90
48946;DHT22;34999;50.940;3.998;2022-07-25T04:19:27;20.10;99.90
48946;DHT22;34999;50.940;3.998;2022-07-25T04:21:55;20.10;99.90
48946;DHT22;34999;50.940;3.998;2022-07-25T04:24:23;20.10;99.90
48946;DHT22;34999;50.940;3.998;2022-07-25T04:26:53;20.00;99.90
48946;DHT22;34999;50.940;3.998;2022-07-25T04:32:27;20.00;99.90
48946;DHT22;34999;50.940;3.998;2022-07-25T04:34:55;20.00;99.90
48946;DHT22;34999;50.940;3.998;2022-07-25T04:37:23;20.00;99.90
48946;DHT22;34999;50.940;3.998;2022-07-25T04:39:52;20.00;99.90
48946;DHT22;34999;50.940;3.998;2022-07-25T04:42:21;19.90;99.90
48946;DHT22;34999;50.940;3.998;2022-07-25T04:44:49;19.90;99.90
48946;DHT22;34999;50.940;3.998;2022-07-25T04:47:18;19.90;99.90
48946;DHT22;34999;50.940;3.998;2022-07-25T04:49:46;19.90;99.90
48946;DHT22;34999;50.940;3.998;2022-07-25T04:52:14;19.80;99.90
48946;DHT22;34999;50.940;3.998;2022-07-25T04:54:43;19.80;99.90
48946;DHT22;34999;50.940;3.998;2022-07-25T04:57:11;19.80;99.90
48946;DHT22;34999;50.940;3.998;2022-07-25T04:59:40;19.80;99.90
48946;DHT22;34999;50.940;3.998;2022-07-25T05:02:10;19.80;99.90
48946;DHT22;34999;50.940;3.998;2022-07-25T05:04:38;19.70;99.90
48946;DHT22;34999;50.940;3.998;2022-07-25T05:07:11;19.70;99.90
48946;DHT22;34999;50.940;3.998;2022-07-25T05:09:40;19.70;99.90
48946;DHT22;34999;50.940;3.998;2022-07-25T05:12:08;19.70;99.90
48946;DHT22;34999;50.940;3.998;2022-07-25T05:14:36;19.70;99.90
48946;DHT22;34999;50.940;3.998;2022-07-25T05:17:07;19.70;99.90
48946;DHT22;34999;50.940;3.998;2022-07-25T05:19:35;19.70;99.90
48946;DHT22;34999;50.940;3.998;2022-07-25T05:22:04;19.80;99.90
48946;DHT22;34999;50.940;3.998;2022-07-25T05:24:35;19.80;99.90
48946;DHT22;34999;50.940;3.998;2022-07-25T05:27:03;19.90;99.90
48946;DHT22;34999;50.940;3.998;2022-07-25T05:29:32;19.90;99.90
48946;DHT22;34999;50.940;3.998;2022-07-25T05:32:00;20.00;99.90
48946;DHT22;34999;50.940;3.998;2022-07-25T05:34:29;20.00;99.90
48946;DHT22;34999;50.940;3.998;2022-07-25T05:36:58;20.10;99.90
48946;DHT22;34999;50.940;3.998;2022-07-25T05:39:26;20.10;99.90
48946;DHT22;34999;50.940;3.998;2022-07-25T05:41:55;20.10;99.90
48946;DHT22;34999;50.940;3.998;2022-07-25T05:44:23;20.10;99.90
48946;DHT22;34999;50.940;3.998;2022-07-25T05:46:51;20.10;99.90
48946;DHT22;34999;50.940;3.998;2022-07-25T05:49:21;20.10;99.90
48946;DHT22;34999;50.940;3.998;2022-07-25T05:51:51;20.10;99.90
48946;DHT22;34999;50.940;3.998;2022-07-25T05:54:19;20.10;99.90
48946;DHT22;34999;50.940;3.998;2022-07-25T05:56:48;20.10;99.90
48946;DHT22;34999;50.940;3.998;2022-07-25T05:59:18;20.10;99.90
48946;DHT22;34999;50.940;3.998;2022-07-25T06:01:46;20.20;99.90
48946;DHT22;34999;50.940;3.998;2022-07-25T06:04:14;20.10;99.90
48946;DHT22;34999;50.940;3.998;2022-07-25T06:06:43;20.20;99.90
48946;DHT22;34999;50.940;3.998;2022-07-25T06:09:18;20.20;99.90
48946;DHT22;34999;50.940;3.998;2022-07-25T06:11:48;20.30;99.90
48946;DHT22;34999;50.940;3.998;2022-07-25T06:14:27;20.40;99.90
48946;DHT22;34999;50.940;3.998;2022-07-25T06:16:56;20.50;99.90
48946;DHT22;34999;50.940;3.998;2022-07-25T06:19:50;20.50;99.90
48946;DHT22;34999;50.940;3.998;2022-07-25T06:22:19;20.60;99.90
48946;DHT22;34999;50.940;3.998;2022-07-25T06:24:49;20.50;99.90
48946;DHT22;34999;50.940;3.998;2022-07-25T06:27:17;20.50;99.90
48946;DHT22;34999;50.940;3.998;2022-07-25T06:29:48;20.60;99.90
48946;DHT22;34999;50.940;3.998;2022-07-25T06:32:16;20.90;99.90
48946;DHT22;34999;50.940;3.998;2022-07-25T06:34:44;21.30;99.90
48946;DHT22;34999;50.940;3.998;2022-07-25T06:37:13;21.50;99.90
48946;DHT22;34999;50.940;3.998;2022-07-25T06:39:41;21.50;99.90
48946;DHT22;34999;50.940;3.998;2022-07-25T06:42:13;21.50;99.90
48946;DHT22;34999;50.940;3.998;2022-07-25T06:44:42;21.50;99.90
48946;DHT22;34999;50.940;3.998;2022-07-25T06:47:10;21.50;99.90
48946;DHT22;34999;50.940;3.998;2022-07-25T06:49:40;21.70;99.90
48946;DHT22;34999;50.940;3.998;2022-07-25T06:52:08;21.70;99.90
48946;DHT22;34999;50.940;3.998;2022-07-25T06:54:36;21.80;99.90
48946;DHT22;34999;50.940;3.998;2022-07-25T06:57:05;21.80;99.90
48946;DHT22;34999;50.940;3.998;2022-07-25T06:59:36;22.00;99.90
48946;DHT22;34999;50.940;3.998;2022-07-25T07:02:04;22.40;99.90
48946;DHT22;34999;50.940;3.998;2022-07-25T07:04:32;22.50;99.90
48946;DHT22;34999;50.940;3.998;2022-07-25T07:07:01;22.50;99.90
48946;DHT22;34999;50.940;3.998;2022-07-25T07:09:29;22.60;99.90
48946;DHT22;34999;50.940;3.998;2022-07-25T07:11:58;22.60;99.90
48946;DHT22;34999;50.940;3.998;2022-07-25T07:14:26;22.30;99.90
48946;DHT22;34999;50.940;3.998;2022-07-25T07:16:56;22.30;99.90
48946;DHT22;34999;50.940;3.998;2022-07-25T07:19:25;22.50;99.90
48946;DHT22;34999;50.940;3.998;2022-07-25T07:21:53;23.00;99.90
48946;DHT22;34999;50.940;3.998;2022-07-25T07:24:22;23.50;99.90
48946;DHT22;34999;50.940;3.998;2022-07-25T07:26:51;23.70;99.90
48946;DHT22;34999;50.940;3.998;2022-07-25T07:29:19;23.70;99.90
48946;DHT22;34999;50.940;3.998;2022-07-25T07:31:48;23.70;99.90
48946;DHT22;34999;50.940;3.998;2022-07-25T07:34:18;23.90;99.90
48946;DHT22;34999;50.940;3.998;2022-07-25T07:36:46;24.00;99.90
48946;DHT22;34999;50.940;3.998;2022-07-25T07:39:14;24.30;99.90
48946;DHT22;34999;50.940;3.998;2022-07-25T07:41:43;24.40;99.90
48946;DHT22;34999;50.940;3.998;2022-07-25T07:44:11;24.40;99.90
48946;DHT22;34999;50.940;3.998;2022-07-25T07:46:40;24.70;99.90
48946;DHT22;34999;50.940;3.998;2022-07-25T07:49:08;24.70;99.90
48946;DHT22;34999;50.940;3.998;2022-07-25T07:51:39;25.00;99.90
48946;DHT22;34999;50.940;3.998;2022-07-25T07:54:08;25.40;99.90
48946;DHT22;34999;50.940;3.998;2022-07-25T07:56:53;25.50;99.90
48946;DHT22;34999;50.940;3.998;2022-07-25T07:59:21;25.20;99.90
48946;DHT22;34999;50.940;3.998;2022-07-25T08:01:50;24.60;99.90
48946;DHT22;34999;50.940;3.998;2022-07-25T08:04:18;24.50;99.90
48946;DHT22;34999;50.940;3.998;2022-07-25T08:06:48;24.50;99.90
48946;DHT22;34999;50.940;3.998;2022-07-25T08:09:16;24.70;99.90
48946;DHT22;34999;50.940;3.998;2022-07-25T08:11:44;24.90;99.90
48946;DHT22;34999;50.940;3.998;2022-07-25T08:14:13;25.20;99.90
48946;DHT22;34999;50.940;3.998;2022-07-25T08:16:41;25.10;99.90
48946;DHT22;34999;50.940;3.998;2022-07-25T08:19:10;25.50;99.90
48946;DHT22;34999;50.940;3.998;2022-07-25T08:21:39;25.80;99.90
48946;DHT22;34999;50.940;3.998;2022-07-25T08:24:08;25.90;99.90
48946;DHT22;34999;50.940;3.998;2022-07-25T08:26:37;26.20;99.90
48946;DHT22;34999;50.940;3.998;2022-07-25T08:29:05;26.90;99.90
48946;DHT22;34999;50.940;3.998;2022-07-25T08:31:53;27.00;99.90
48946;DHT22;34999;50.940;3.998;2022-07-25T08:34:22;27.20;99.90
48946;DHT22;34999;50.940;3.998;2022-07-25T08:36:50;27.40;99.90
48946;DHT22;34999;50.940;3.998;2022-07-25T08:39:20;28.10;99.90
48946;DHT22;34999;50.940;3.998;2022-07-25T08:41:48;28.60;99.90
48946;DHT22;34999;50.940;3.998;2022-07-25T08:44:17;28.60;99.90
48946;DHT22;34999;50.940;3.998;2022-07-25T08:46:47;28.60;99.90
48946;DHT22;34999;50.940;3.998;2022-07-25T08:49:16;28.60;99.90
48946;DHT22;34999;50.940;3.998;2022-07-25T08:51:45;27.90;99.90
48946;DHT22;34999;50.940;3.998;2022-07-25T08:54:17;27.50;99.90
48946;DHT22;34999;50.940;3.998;2022-07-25T08:56:50;26.70;99.90
48946;DHT22;34999;50.940;3.998;2022-07-25T08:59:18;26.30;99.90
48946;DHT22;34999;50.940;3.998;2022-07-25T09:01:46;26.00;99.90
48946;DHT22;34999;50.940;3.998;2022-07-25T09:04:15;25.70;99.90
48946;DHT22;34999;50.940;3.998;2022-07-25T09:06:48;25.40;99.90
48946;DHT22;34999;50.940;3.998;2022-07-25T09:09:19;25.50;99.90
48946;DHT22;34999;50.940;3.998;2022-07-25T09:11:57;26.20;99.90
48946;DHT22;34999;50.940;3.998;2022-07-25T09:14:26;27.10;99.90
48946;DHT22;34999;50.940;3.998;2022-07-25T09:16:55;27.50;99.90
48946;DHT22;34999;50.940;3.998;2022-07-25T09:19:24;28.00;99.90
48946;DHT22;34999;50.940;3.998;2022-07-25T09:21:58;28.00;99.90
48946;DHT22;34999;50.940;3.998;2022-07-25T09:24:28;27.20;99.90
48946;DHT22;34999;50.940;3.998;2022-07-25T09:26:59;26.60;99.90
48946;DHT22;34999;50.940;3.998;2022-07-25T09:29:29;26.30;99.90
48946;DHT22;34999;50.940;3.998;2022-07-25T09:31:59;26.20;99.90
48946;DHT22;34999;50.940;3.998;2022-07-25T09:34:34;25.80;99.90
48946;DHT22;34999;50.940;3.998;2022-07-25T09:37:05;25.60;99.90
48946;DHT22;34999;50.940;3.998;2022-07-25T09:39:36;25.70;99.90
48946;DHT22;34999;50.940;3.998;2022-07-25T09:42:23;25.70;99.90
48946;DHT22;34999;50.940;3.998;2022-07-25T09:45:03;25.80;99.90
48946;DHT22;34999;50.940;3.998;2022-07-25T09:47:34;26.10;99.90
48946;DHT22;34999;50.940;3.998;2022-07-25T09:50:04;26.30;99.90
48946;DHT22;34999;50.940;3.998;2022-07-25T09:52:34;26.00;99.90
48946;DHT22;34999;50.940;3.998;2022-07-25T09:55:04;25.50;99.90
48946;DHT22;34999;50.940;3.998;2022-07-25T09:57:35;25.30;99.90
48946;DHT22;34999;50.940;3.998;2022-07-25T10:00:05;25.10;99.90
48946;DHT22;34999;50.940;3.998;2022-07-25T10:02:40;24.80;99.90
48946;DHT22;34999;50.940;3.998;2022-07-25T10:05:14;24.50;99.90
48946;DHT22;34999;50.940;3.998;2022-07-25T10:07:45;24.30;99.90
48946;DHT22;34999;50.940;3.998;2022-07-25T10:10:25;24.40;99.90
48946;DHT22;34999;50.940;3.998;2022-07-25T10:13:03;24.50;99.90
48946;DHT22;34999;50.940;3.998;2022-07-25T10:15:45;24.40;99.90
48946;DHT22;34999;50.940;3.998;2022-07-25T10:18:15;24.20;99.90
48946;DHT22;34999;50.940;3.998;2022-07-25T10:20:44;23.90;99.90
48946;DHT22;34999;50.940;3.998;2022-07-25T10:23:20;23.80;99.90
48946;DHT22;34999;50.940;3.998;2022-07-25T10:26:00;23.60;99.90
48946;DHT22;34999;50.940;3.998;2022-07-25T10:28:38;23.50;99.90
48946;DHT22;34999;50.940;3.998;2022-07-25T10:31:18;23.50;99.90
48946;DHT22;34999;50.940;3.998;2022-07-25T10:33:55;23.50;99.90
48946;DHT22;34999;50.940;3.998;2022-07-25T10:36:25;23.60;99.90
48946;DHT22;34999;50.940;3.998;2022-07-25T10:38:57;23.50;99.90
48946;DHT22;34999;50.940;3.998;2022-07-25T10:41:26;23.50;99.90
48946;DHT22;34999;50.940;3.998;2022-07-25T10:44:00;23.50;99.90
48946;DHT22;34999;50.940;3.998;2022-07-25T10:46:29;23.30;99.90
48946;DHT22;34999;50.940;3.998;2022-07-25T10:49:03;23.10;99.90
48946;DHT22;34999;50.940;3.998;2022-07-25T10:51:34;23.10;99.90
48946;DHT22;34999;50.940;3.998;2022-07-25T10:54:13;23.00;99.90
48946;DHT22;34999;50.940;3.998;2022-07-25T10:56:52;22.80;99.90
48946;DHT22;34999;50.940;3.998;2022-07-25T10:59:30;22.60;99.90
48946;DHT22;34999;50.940;3.998;2022-07-25T11:01:59;22.50;99.90
48946;DHT22;34999;50.940;3.998;2022-07-25T11:04:28;22.50;99.90
48946;DHT22;34999;50.940;3.998;2022-07-25T11:06:56;22.60;99.90
48946;DHT22;34999;50.940;3.998;2022-07-25T11:09:27;22.70;99.90
48946;DHT22;34999;50.940;3.998;2022-07-25T11:11:57;22.80;99.90
48946;DHT22;34999;50.940;3.998;2022-07-25T11:14:30;22.80;99.90
48946;DHT22;34999;50.940;3.998;2022-07-25T11:17:12;22.90;99.90
48946;DHT22;34999;50.940;3.998;2022-07-25T11:19:42;23.20;99.90
48946;DHT22;34999;50.940;3.998;2022-07-25T11:22:11;23.50;99.90
48946;DHT22;34999;50.940;3.998;2022-07-25T11:24:40;23.70;99.90
48946;DHT22;34999;50.940;3.998;2022-07-25T11:27:11;24.00;99.90
48946;DHT22;34999;50.940;3.998;2022-07-25T11:29:41;24.30;99.90
48946;DHT22;34999;50.940;3.998;2022-07-25T11:32:10;24.50;99.90
48946;DHT22;34999;50.940;3.998;2022-07-25T11:34:41;24.50;99.90
48946;DHT22;34999;50.940;3.998;2022-07-25T11:37:11;24.30;99.90
48946;DHT22;34999;50.940;3.998;2022-07-25T11:39:42;24.20;99.90
48946;DHT22;34999;50.940;3.998;2022-07-25T11:42:12;24.00;99.90
48946;DHT22;34999;50.940;3.998;2022-07-25T11:44:45;23.90;99.90
48946;DHT22;34999;50.940;3.998;2022-07-25T11:47:23;24.00;99.90
48946;DHT22;34999;50.940;3.998;2022-07-25T11:49:53;24.40;99.90
48946;DHT22;34999;50.940;3.998;2022-07-25T11:52:24;24.80;99.90
48946;DHT22;34999;50.940;3.998;2022-07-25T11:54:54;24.80;99.90
48946;DHT22;34999;50.940;3.998;2022-07-25T11:57:23;24.60;99.90
48946;DHT22;34999;50.940;3.998;2022-07-25T11:59:54;24.40;99.90
48946;DHT22;34999;50.940;3.998;2022-07-25T12:02:24;24.80;99.90
48946;DHT22;34999;50.940;3.998;2022-07-25T12:04:55;24.90;99.90
48946;DHT22;34999;50.940;3.998;2022-07-25T12:07:49;24.80;99.90
48946;DHT22;34999;50.940;3.998;2022-07-25T12:10:20;24.90;99.90
48946;DHT22;34999;50.940;3.998;2022-07-25T12:12:50;25.10;99.90
48946;DHT22;34999;50.940;3.998;2022-07-25T12:15:22;25.50;99.90
48946;DHT22;34999;50.940;3.998;2022-07-25T12:17:52;25.50;99.90
48946;DHT22;34999;50.940;3.998;2022-07-25T12:20:23;25.80;99.90
48946;DHT22;34999;50.940;3.998;2022-07-25T12:22:53;26.00;99.90
48946;DHT22;34999;50.940;3.998;2022-07-25T12:25:22;26.00;99.90
48946;DHT22;34999;50.940;3.998;2022-07-25T12:27:57;26.00;99.90
48946;DHT22;34999;50.940;3.998;2022-07-25T12:30:28;25.80;99.90
48946;DHT22;34999;50.940;3.998;2022-07-25T12:32:57;26.00;99.90
48946;DHT22;34999;50.940;3.998;2022-07-25T12:35:26;25.90;99.90
48946;DHT22;34999;50.940;3.998;2022-07-25T12:37:55;26.00;99.90
48946;DHT22;34999;50.940;3.998;2022-07-25T12:40:25;25.80;99.90
48946;DHT22;34999;50.940;3.998;2022-07-25T12:42:53;25.70;99.90
48946;DHT22;34999;50.940;3.998;2022-07-25T12:45:23;25.70;99.90
48946;DHT22;34999;50.940;3.998;2022-07-25T12:47:53;25.80;99.90
48946;DHT22;34999;50.940;3.998;2022-07-25T12:50:22;25.90;99.90
48946;DHT22;34999;50.940;3.998;2022-07-25T12:52:52;26.00;99.90
48946;DHT22;34999;50.940;3.998;2022-07-25T12:55:20;25.90;99.90
48946;DHT22;34999;50.940;3.998;2022-07-25T12:57:49;25.80;99.90
48946;DHT22;34999;50.940;3.998;2022-07-25T13:00:19;25.80;99.90
48946;DHT22;34999;50.940;3.998;2022-07-25T13:02:49;25.80;99.90
48946;DHT22;34999;50.940;3.998;2022-07-25T13:05:20;25.80;99.90
48946;DHT22;34999;50.940;3.998;2022-07-25T13:07:49;25.40;99.90
48946;DHT22;34999;50.940;3.998;2022-07-25T13:10:19;25.20;99.90
48946;DHT22;34999;50.940;3.998;2022-07-25T13:12:47;25.20;99.90
48946;DHT22;34999;50.940;3.998;2022-07-25T13:15:16;25.10;99.90
48946;DHT22;34999;50.940;3.998;2022-07-25T13:17:46;25.00;99.90
48946;DHT22;34999;50.940;3.998;2022-07-25T13:20:15;25.20;99.90
48946;DHT22;34999;50.940;3.998;2022-07-25T13:22:44;25.70;99.90
48946;DHT22;34999;50.940;3.998;2022-07-25T13:25:16;26.00;99.90
48946;DHT22;34999;50.940;3.998;2022-07-25T13:27:46;26.40;99.90
48946;DHT22;34999;50.940;3.998;2022-07-25T13:30:14;26.70;99.90
48946;DHT22;34999;50.940;3.998;2022-07-25T13:32:42;27.00;99.90
48946;DHT22;34999;50.940;3.998;2022-07-25T13:35:11;26.80;99.90
48946;DHT22;34999;50.940;3.998;2022-07-25T13:37:47;26.60;99.90
48946;DHT22;34999;50.940;3.998;2022-07-25T13:40:15;26.50;99.90
48946;DHT22;34999;50.940;3.998;2022-07-25T13:42:43;26.50;99.90
48946;DHT22;34999;50.940;3.998;2022-07-25T13:45:12;26.50;99.90
48946;DHT22;34999;50.940;3.998;2022-07-25T13:47:40;26.50;99.90
48946;DHT22;34999;50.940;3.998;2022-07-25T13:50:09;26.50;99.90
48946;DHT22;34999;50.940;3.998;2022-07-25T13:52:37;26.50;99.90
48946;DHT22;34999;50.940;3.998;2022-07-25T13:55:07;26.60;99.90
48946;DHT22;34999;50.940;3.998;2022-07-25T13:57:37;26.50;99.90
48946;DHT22;34999;50.940;3.998;2022-07-25T14:00:06;26.20;99.90
48946;DHT22;34999;50.940;3.998;2022-07-25T14:02:35;26.20;99.90
48946;DHT22;34999;50.940;3.998;2022-07-25T14:05:04;26.20;99.90
48946;DHT22;34999;50.940;3.998;2022-07-25T14:07:33;26.40;99.90
48946;DHT22;34999;50.940;3.998;2022-07-25T14:10:02;26.40;99.90
48946;DHT22;34999;50.940;3.998;2022-07-25T14:12:32;26.10;99.90
48946;DHT22;34999;50.940;3.998;2022-07-25T14:15:02;25.80;99.90
48946;DHT22;34999;50.940;3.998;2022-07-25T14:17:31;25.70;99.90
48946;DHT22;34999;50.940;3.998;2022-07-25T14:19:59;26.00;99.90
48946;DHT22;34999;50.940;3.998;2022-07-25T14:22:29;26.20;99.90
48946;DHT22;34999;50.940;3.998;2022-07-25T14:24:57;25.80;99.90
48946;DHT22;34999;50.940;3.998;2022-07-25T14:27:26;25.80;99.90
48946;DHT22;34999;50.940;3.998;2022-07-25T14:30:22;26.20;99.90
48946;DHT22;34999;50.940;3.998;2022-07-25T14:32:51;26.30;99.90
48946;DHT22;34999;50.940;3.998;2022-07-25T14:35:19;26.30;99.90
48946;DHT22;34999;50.940;3.998;2022-07-25T14:37:48;26.10;99.90
48946;DHT22;34999;50.940;3.998;2022-07-25T14:40:16;26.10;99.90
48946;DHT22;34999;50.940;3.998;2022-07-25T14:42:45;26.30;99.90
48946;DHT22;34999;50.940;3.998;2022-07-25T14:45:14;26.60;99.90
48946;DHT22;34999;50.940;3.998;2022-07-25T14:47:48;26.60;99.90
48946;DHT22;34999;50.940;3.998;2022-07-25T14:50:17;26.50;99.90
48946;DHT22;34999;50.940;3.998;2022-07-25T14:52:45;26.30;99.90
48946;DHT22;34999;50.940;3.998;2022-07-25T14:55:14;26.30;99.90
48946;DHT22;34999;50.940;3.998;2022-07-25T14:57:43;26.90;99.90
48946;DHT22;34999;50.940;3.998;2022-07-25T15:00:12;26.70;99.90
48946;DHT22;34999;50.940;3.998;2022-07-25T15:02:41;26.30;99.90
48946;DHT22;34999;50.940;3.998;2022-07-25T15:05:11;25.90;99.90
48946;DHT22;34999;50.940;3.998;2022-07-25T15:07:39;25.50;99.90
48946;DHT22;34999;50.940;3.998;2022-07-25T15:10:08;25.80;99.90
48946;DHT22;34999;50.940;3.998;2022-07-25T15:12:37;25.70;99.90
48946;DHT22;34999;50.940;3.998;2022-07-25T15:15:06;25.70;99.90
48946;DHT22;34999;50.940;3.998;2022-07-25T15:17:34;25.90;99.90
48946;DHT22;34999;50.940;3.998;2022-07-25T15:20:03;25.80;99.90
48946;DHT22;34999;50.940;3.998;2022-07-25T15:22:33;25.80;99.90
48946;DHT22;34999;50.940;3.998;2022-07-25T15:25:02;25.60;99.90
48946;DHT22;34999;50.940;3.998;2022-07-25T15:27:51;25.50;99.90
48946;DHT22;34999;50.940;3.998;2022-07-25T15:30:20;25.90;99.90
48946;DHT22;34999;50.940;3.998;2022-07-25T15:32:55;25.80;99.90
48946;DHT22;34999;50.940;3.998;2022-07-25T15:35:23;25.70;99.90
48946;DHT22;34999;50.940;3.998;2022-07-25T15:37:53;26.00;99.90
48946;DHT22;34999;50.940;3.998;2022-07-25T15:40:21;26.30;99.90
48946;DHT22;34999;50.940;3.998;2022-07-25T15:42:52;26.20;99.90
48946;DHT22;34999;50.940;3.998;2022-07-25T15:45:20;26.00;99.90
48946;DHT22;34999;50.940;3.998;2022-07-25T15:47:59;25.60;99.90
48946;DHT22;34999;50.940;3.998;2022-07-25T15:50:29;25.20;99.90
48946;DHT22;34999;50.940;3.998;2022-07-25T15:52:59;25.00;99.90
48946;DHT22;34999;50.940;3.998;2022-07-25T15:55:27;25.00;99.90
48946;DHT22;34999;50.940;3.998;2022-07-25T15:57:56;25.00;99.90
48946;DHT22;34999;50.940;3.998;2022-07-25T16:00:25;25.10;99.90
48946;DHT22;34999;50.940;3.998;2022-07-25T16:03:11;25.20;99.90
48946;DHT22;34999;50.940;3.998;2022-07-25T16:05:42;24.80;99.90